Time;durP1;ratioP1;P1;durP2;ratioP2;P2;SDS_P1;SDS_P2;PMS_P1;PMS_P2;Temp;Humidity;BMP_temperature;BMP_pressure;BME280_temperature;BME280_humidity;BME280_pressure;Samples;Min_cycle;Max_cycle;Signal;HPM_P1;HPM_P2
2022/06/03 00:00:43;;;;;;;7.03;5.10;;;;;;;;;;5095204;28;20050;-64
2022/06/03 00:03:15;;;;;;;8.00;5.28;;;;;;;;;;5101423;28;20520;-65
2022/06/03 00:05:41;;;;;;;9.07;4.90;;;;;;;;;;5100823;28;20117;-65
2022/06/03 00:08:14;;;;;;;6.70;4.60;;;;;;;;;;5115484;27;20397;-65
2022/06/03 00:10:59;;;;;;;9.73;5.07;;;;;;;;;;5095374;28;20044;-65
2022/06/03 00:13:32;;;;;;;6.43;3.88;;;;;;;;;;5101935;28;20036;-65
2022/06/03 00:16:18;;;;;;;7.60;5.03;;;;;;;;;;5092293;28;20035;-65
2022/06/03 00:18:50;;;;;;;6.90;4.55;;;;;;;;;;5087401;28;20039;-64
2022/06/03 00:21:33;;;;;;;9.05;5.93;;;;;;;;;;5114319;27;20043;-64
2022/06/03 00:24:05;;;;;;;6.57;4.43;;;;;;;;;;5089638;28;20032;-65
2022/06/03 00:26:32;;;;;;;6.82;4.65;;;;;;;;;;5088762;28;20068;-64
2022/06/03 00:29:13;;;;;;;7.43;4.97;;;;;;;;;;5088809;28;20121;-68
2022/06/03 00:31:39;;;;;;;7.72;4.38;;;;;;;;;;5100640;28;20252;-64
2022/06/03 00:34:06;;;;;;;10.10;5.60;;;;;;;;;;5099758;28;20047;-64
2022/06/03 00:36:51;;;;;;;7.15;4.25;;;;;;;;;;5087146;28;20055;-65
2022/06/03 00:39:31;;;;;;;6.53;4.65;;;;;;;;;;5094626;28;20051;-66
2022/06/03 00:42:01;;;;;;;7.63;5.50;;;;;;;;;;5097187;28;20040;-64
2022/06/03 00:44:42;;;;;;;7.05;5.03;;;;;;;;;;5092684;28;20090;-65
2022/06/03 00:47:27;;;;;;;6.88;5.10;;;;;;;;;;5098137;28;20038;-64
2022/06/03 00:50:08;;;;;;;7.88;4.93;;;;;;;;;;5089984;28;20401;-65
2022/06/03 00:53:07;;;;;;;6.65;4.97;;;;;;;;;;5086589;28;20298;-65
2022/06/03 00:55:37;;;;;;;5.70;4.75;;;;;;;;;;5067219;28;20058;-65
2022/06/03 00:58:11;;;;;;;6.43;4.80;;;;;;;;;;5102794;27;20039;-64
2022/06/03 01:00:44;;;;;;;7.38;4.88;;;;;;;;;;5112598;27;20065;-65
2022/06/03 01:03:10;;;;;;;;;;;;;;;;;;5094581;28;20325;-65
2022/06/03 01:05:42;;;;;;;7.60;5.07;;;;;;;;;;5097681;28;19986;-65
2022/06/03 01:08:15;;;;;;;8.48;5.07;;;;;;;;;;5094786;28;20043;-65
2022/06/03 01:10:56;;;;;;;7.85;5.47;;;;;;;;;;5101540;28;20043;-64
2022/06/03 01:13:41;;;;;;;6.65;4.47;;;;;;;;;;5087882;28;20048;-64
2022/06/03 01:16:13;;;;;;;8.90;5.50;;;;;;;;;;5092874;28;20079;-64
2022/06/03 01:18:55;;;;;;;7.90;5.05;;;;;;;;;;5089834;28;20078;-65
2022/06/03 01:21:40;;;;;;;8.00;5.80;;;;;;;;;;5100501;28;20038;-64
2022/06/03 01:24:24;;;;;;;6.20;5.00;;;;;;;;;;5093514;28;20042;-64
2022/06/03 01:27:09;;;;;;;7.22;5.15;;;;;;;;;;5089409;28;20062;-65
2022/06/03 01:29:54;;;;;;;10.27;5.22;;;;;;;;;;5094632;28;20047;-65
2022/06/03 01:32:32;;;;;;;8.05;5.70;;;;;;;;;;5089710;28;20035;-65
2022/06/03 01:35:07;;;;;;;6.35;4.22;;;;;;;;;;5092043;28;20032;-64
2022/06/03 01:37:53;;;;;;;6.45;5.22;;;;;;;;;;5093838;28;20638;-65
2022/06/03 01:40:24;;;;;;;6.03;4.93;;;;;;;;;;5082250;28;20424;-65
2022/06/03 01:43:09;;;;;;;8.43;5.45;;;;;;;;;;5094903;28;20040;-64
2022/06/03 01:45:35;;;;;;;6.93;5.05;;;;;;;;;;5095550;28;20039;-65
2022/06/03 01:48:06;;;;;;;7.88;5.10;;;;;;;;;;5089295;28;20567;-65
2022/06/03 01:50:48;;;;;;;7.07;5.38;;;;;;;;;;5098907;28;20429;-65
2022/06/03 01:53:17;;;;;;;7.50;4.78;;;;;;;;;;5092249;28;20043;-65
2022/06/03 01:56:03;;;;;;;8.88;5.15;;;;;;;;;;5085207;28;20097;-65
2022/06/03 01:58:29;;;;;;;7.82;5.45;;;;;;;;;;5066926;28;20391;-64
2022/06/03 02:01:03;;;;;;;8.95;5.20;;;;;;;;;;5088888;28;20086;-65
2022/06/03 02:03:55;;;;;;;9.25;5.43;;;;;;;;;;5087460;28;20048;-65
2022/06/03 02:06:45;;;;;;;9.23;5.10;;;;;;;;;;5086405;28;20517;-65
2022/06/03 02:09:20;;;;;;;8.15;6.05;;;;;;;;;;5089217;28;20305;-65
2022/06/03 02:11:58;;;;;;;9.52;5.25;;;;;;;;;;5095189;28;20051;-65
2022/06/03 02:14:43;;;;;;;7.68;5.05;;;;;;;;;;5086394;28;20052;-65
2022/06/03 02:17:15;;;;;;;6.28;4.80;;;;;;;;;;5095435;28;20051;-65
2022/06/03 02:20:00;;;;;;;8.27;5.40;;;;;;;;;;5080181;28;20523;-65
2022/06/03 02:22:32;;;;;;;6.40;5.03;;;;;;;;;;5098606;28;20039;-65
2022/06/03 02:25:21;;;;;;;8.27;5.82;;;;;;;;;;5092668;28;20042;-65
2022/06/03 02:27:57;;;;;;;7.28;5.60;;;;;;;;;;5093148;28;20063;-64
2022/06/03 02:30:26;;;;;;;6.88;4.95;;;;;;;;;;5096246;28;20078;-65
2022/06/03 02:32:52;;;;;;;6.82;5.60;;;;;;;;;;5086225;28;20040;-65
2022/06/03 02:35:18;;;;;;;10.00;6.18;;;;;;;;;;5091587;28;20635;-65
2022/06/03 02:37:53;;;;;;;9.88;5.10;;;;;;;;;;5097618;28;20105;-65
2022/06/03 02:40:23;;;;;;;9.60;4.78;;;;;;;;;;5089536;28;20082;-64
2022/06/03 02:42:49;;;;;;;8.52;5.40;;;;;;;;;;5101169;28;20047;-65
2022/06/03 02:45:15;;;;;;;6.97;5.13;;;;;;;;;;5094869;28;20093;-65
2022/06/03 02:47:44;;;;;;;8.18;5.60;;;;;;;;;;5096205;28;20042;-65
2022/06/03 02:50:18;;;;;;;8.18;5.35;;;;;;;;;;5097433;28;20555;-65
2022/06/03 02:53:03;;;;;;;15.93;6.50;;;;;;;;;;5091109;28;20046;-65
2022/06/03 02:55:44;;;;;;;8.15;5.78;;;;;;;;;;5084988;28;20031;-64
2022/06/03 02:58:34;;;;;;;7.95;5.45;;;;;;;;;;5092683;28;20405;-67
2022/06/03 03:01:09;;;;;;;7.13;5.18;;;;;;;;;;5075087;28;20040;-65
2022/06/03 03:03:38;;;;;;;10.20;5.75;;;;;;;;;;5085645;28;20083;-65
2022/06/03 03:06:19;;;;;;;14.20;5.95;;;;;;;;;;5099343;28;20124;-65
2022/06/03 03:08:49;;;;;;;8.65;6.70;;;;;;;;;;5096584;28;20044;-65
2022/06/03 03:11:18;;;;;;;11.73;5.70;;;;;;;;;;5098060;28;20036;-65
2022/06/03 03:13:59;;;;;;;7.07;5.32;;;;;;;;;;5097937;28;20040;-64
2022/06/03 03:16:27;;;;;;;9.48;6.10;;;;;;;;;;5092852;28;20043;-64
2022/06/03 03:19:12;;;;;;;9.98;6.35;;;;;;;;;;5096506;28;20177;-64
2022/06/03 03:21:57;;;;;;;10.77;6.40;;;;;;;;;;5090132;28;20043;-64
2022/06/03 03:24:23;;;;;;;9.43;6.22;;;;;;;;;;5089014;28;20035;-65
2022/06/03 03:26:50;;;;;;;8.68;5.68;;;;;;;;;;5085556;28;20387;-65
2022/06/03 03:29:52;;;;;;;7.93;5.60;;;;;;;;;;5092758;28;20536;-64
2022/06/03 03:32:21;;;;;;;8.25;5.75;;;;;;;;;;5060341;28;20111;-64
2022/06/03 03:35:05;;;;;;;10.13;6.00;;;;;;;;;;5080030;28;20052;-65
2022/06/03 03:37:41;;;;;;;8.48;6.47;;;;;;;;;;5084092;28;20054;-65
2022/06/03 03:40:10;;;;;;;9.55;5.90;;;;;;;;;;5088780;28;20048;-65
2022/06/03 03:42:42;;;;;;;9.65;7.22;;;;;;;;;;5084565;28;20036;-65
2022/06/03 03:45:27;;;;;;;9.80;6.13;;;;;;;;;;5086187;28;20036;-65
2022/06/03 03:48:12;;;;;;;8.85;6.15;;;;;;;;;;5083920;28;20162;-65
2022/06/03 03:50:44;;;;;;;9.10;6.68;;;;;;;;;;5085846;28;20482;-65
2022/06/03 03:53:19;;;;;;;8.50;6.50;;;;;;;;;;5066267;28;20047;-65
2022/06/03 03:55:45;;;;;;;9.57;7.55;;;;;;;;;;5089873;28;20420;-65
2022/06/03 03:58:17;;;;;;;9.57;6.20;;;;;;;;;;5089966;28;20036;-65
2022/06/03 04:01:03;;;;;;;10.03;7.47;;;;;;;;;;5088762;28;20036;-65
2022/06/03 04:03:32;;;;;;;7.65;6.43;;;;;;;;;;5088921;28;20122;-65
2022/06/03 04:06:07;;;;;;;13.55;7.43;;;;;;;;;;5086325;28;20036;-65
2022/06/03 04:08:48;;;;;;;10.85;7.75;;;;;;;;;;5086028;28;20059;-65
2022/06/03 04:11:32;;;;;;;10.00;6.35;;;;;;;;;;5086575;28;20127;-64
2022/06/03 04:14:04;;;;;;;9.57;6.75;;;;;;;;;;5091177;28;20040;-65
2022/06/03 04:16:49;;;;;;;10.48;6.30;;;;;;;;;;5092303;28;20071;-65
2022/06/03 04:19:18;;;;;;;8.95;6.70;;;;;;;;;;5098358;28;20048;-65
2022/06/03 04:21:59;;;;;;;8.13;6.18;;;;;;;;;;5096828;28;20567;-65
2022/06/03 04:24:31;;;;;;;7.05;5.78;;;;;;;;;;5091610;28;20032;-64
2022/06/03 04:27:16;;;;;;;7.68;6.50;;;;;;;;;;5083734;28;20140;-65
2022/06/03 04:30:04;;;;;;;8.98;6.20;;;;;;;;;;5087030;28;20039;-65
2022/06/03 04:32:33;;;;;;;8.82;6.63;;;;;;;;;;5081509;28;20055;-65
2022/06/03 04:35:18;;;;;;;10.45;6.78;;;;;;;;;;5087254;28;20043;-65
2022/06/03 04:37:50;;;;;;;8.70;6.95;;;;;;;;;;5089781;28;20059;-65
2022/06/03 04:40:28;;;;;;;11.98;6.30;;;;;;;;;;5090174;28;20040;-65
2022/06/03 04:43:07;;;;;;;10.15;6.35;;;;;;;;;;5088225;28;20492;-65
2022/06/03 04:45:42;;;;;;;11.45;6.70;;;;;;;;;;5093519;28;20046;-65
2022/06/03 04:48:37;;;;;;;10.40;6.72;;;;;;;;;;5094739;28;20469;-65
2022/06/03 04:51:22;;;;;;;9.23;5.13;;;;;;;;;;5088211;28;20097;-65
2022/06/03 04:53:57;;;;;;;10.52;6.45;;;;;;;;;;5087642;28;20036;-65
2022/06/03 04:56:37;;;;;;;7.88;5.65;;;;;;;;;;5088937;28;20071;-65
2022/06/03 04:59:06;;;;;;;8.70;6.22;;;;;;;;;;5090956;28;20052;-66
2022/06/03 05:01:51;;;;;;;10.32;5.97;;;;;;;;;;5086301;28;20087;-65
2022/06/03 05:04:20;;;;;;;9.38;6.00;;;;;;;;;;5094540;28;20050;-66
2022/06/03 05:06:52;;;;;;;9.93;6.25;;;;;;;;;;5091336;28;20404;-66
2022/06/03 05:09:18;;;;;;;7.68;5.88;;;;;;;;;;5082199;28;20404;-65
2022/06/03 05:11:56;;;;;;;9.57;7.40;;;;;;;;;;5090504;28;20134;-65
2022/06/03 05:14:49;;;;;;;11.15;7.00;;;;;;;;;;5093027;28;20193;-65
2022/06/03 05:17:29;;;;;;;10.35;6.68;;;;;;;;;;5094330;28;20040;-65
2022/06/03 05:20:13;;;;;;;12.30;6.72;;;;;;;;;;5093393;28;20071;-65
2022/06/03 05:22:39;;;;;;;8.80;6.88;;;;;;;;;;5086721;28;20122;-65
2022/06/03 05:25:23;;;;;;;9.75;6.63;;;;;;;;;;5090405;28;20105;-66
2022/06/03 05:28:16;;;;;;;9.98;6.40;;;;;;;;;;5087430;28;20126;-65
2022/06/03 05:31:09;;;;;;;11.13;7.30;;;;;;;;;;5082081;28;20490;-65
2022/06/03 05:33:54;;;;;;;9.50;5.38;;;;;;;;;;5098432;28;20285;-65
2022/06/03 05:36:28;;;;;;;9.20;6.75;;;;;;;;;;5094141;28;20107;-65
2022/06/03 05:39:21;;;;;;;9.45;6.78;;;;;;;;;;5090318;28;20505;-65
2022/06/03 05:44:40;;;;;;;8.50;6.07;;;;;;;;;;5098043;28;20027;-65
2022/06/03 05:47:26;;;;;;;12.40;6.85;;;;;;;;;;5099048;28;20055;-63
2022/06/03 05:50:11;;;;;;;10.35;6.43;;;;;;;;;;5073397;28;20051;-64
2022/06/03 05:52:48;;;;;;;9.38;6.07;;;;;;;;;;5085901;28;20051;-65
2022/06/03 05:55:22;;;;;;;11.10;6.68;;;;;;;;;;5097907;28;20518;-64
2022/06/03 05:57:49;;;;;;;9.88;6.60;;;;;;;;;;5096766;28;20131;-64
2022/06/03 06:00:15;;;;;;;9.52;6.63;;;;;;;;;;5091650;28;20062;-67
2022/06/03 06:02:49;;;;;;;9.15;5.78;;;;;;;;;;5099786;28;20521;-64
2022/06/03 06:05:31;;;;;;;7.95;5.03;;;;;;;;;;5099859;28;20442;-64
2022/06/03 06:08:10;;;;;;;11.77;6.13;;;;;;;;;;5087027;28;20051;-64
2022/06/03 06:10:54;;;;;;;9.13;6.57;;;;;;;;;;5094465;28;20191;-67
2022/06/03 06:13:39;;;;;;;10.15;6.50;;;;;;;;;;5091794;28;20092;-64
2022/06/03 06:16:08;;;;;;;8.90;4.95;;;;;;;;;;5085242;28;20048;-65
2022/06/03 06:18:44;;;;;;;7.55;5.40;;;;;;;;;;5092564;28;20509;-64
2022/06/03 06:21:13;;;;;;;6.18;4.30;;;;;;;;;;5086659;28;20512;-64
2022/06/03 06:23:43;;;;;;;8.35;4.72;;;;;;;;;;5091797;28;20294;-64
2022/06/03 06:26:13;;;;;;;5.05;4.18;;;;;;;;;;5088854;28;20040;-64
2022/06/03 06:28:58;;;;;;;9.38;4.47;;;;;;;;;;5073965;28;20051;-65
2022/06/03 06:31:44;;;;;;;5.28;3.80;;;;;;;;;;5099582;28;20588;-64
2022/06/03 06:34:22;;;;;;;5.10;4.05;;;;;;;;;;5072270;28;20481;-64
2022/06/03 06:37:07;;;;;;;23.17;4.25;;;;;;;;;;5089211;28;20047;-64
2022/06/03 06:39:36;;;;;;;7.85;3.70;;;;;;;;;;5087738;28;20048;-64
2022/06/03 06:42:12;;;;;;;5.63;3.75;;;;;;;;;;5085666;28;20047;-64
2022/06/03 06:44:49;;;;;;;5.13;3.63;;;;;;;;;;5086466;28;20772;-64
2022/06/03 06:47:15;;;;;;;7.70;4.13;;;;;;;;;;5088727;28;20482;-64
2022/06/03 06:50:01;;;;;;;5.43;3.83;;;;;;;;;;5087687;28;20485;-64
2022/06/03 06:52:33;;;;;;;8.23;4.25;;;;;;;;;;5088263;28;20036;-64
2022/06/03 06:55:09;;;;;;;7.13;3.67;;;;;;;;;;5084036;28;20047;-64
2022/06/03 06:57:41;;;;;;;12.35;4.43;;;;;;;;;;5085989;28;20111;-64
2022/06/03 07:00:15;;;;;;;7.50;3.22;;;;;;;;;;5086611;28;20040;-64
2022/06/03 07:02:45;;;;;;;8.80;3.65;;;;;;;;;;5093322;28;20458;-64
2022/06/03 07:05:18;;;;;;;11.30;2.92;;;;;;;;;;5091708;28;20044;-64
2022/06/03 07:07:47;;;;;;;3.53;2.58;;;;;;;;;;5098921;28;20464;-64
2022/06/03 07:10:25;;;;;;;6.95;3.25;;;;;;;;;;5085795;28;20501;-64
2022/06/03 07:12:52;;;;;;;6.45;2.78;;;;;;;;;;5098590;28;20397;-64
2022/06/03 07:15:23;;;;;;;4.13;2.50;;;;;;;;;;5091953;28;20048;-65
2022/06/03 07:20:55;;;;;;;4.32;2.58;;;;;;;;;;5096295;28;20550;-64
2022/06/03 07:23:26;;;;;;;5.28;3.30;;;;;;;;;;5099789;28;20039;-64
2022/06/03 07:25:58;;;;;;;9.95;3.47;;;;;;;;;;5099538;28;20039;-64
2022/06/03 07:28:33;;;;;;;8.68;3.33;;;;;;;;;;5091918;28;20043;-65
2022/06/03 07:31:11;;;;;;;6.68;3.63;;;;;;;;;;5094383;28;20067;-64
2022/06/03 07:33:42;;;;;;;4.07;2.80;;;;;;;;;;5085687;28;20088;-64
2022/06/03 07:36:15;;;;;;;6.45;2.58;;;;;;;;;;5098111;28;20036;-64
2022/06/03 07:38:42;;;;;;;;;;;;;;;;;;5095231;28;20498;-64
2022/06/03 07:41:17;;;;;;;12.70;3.25;;;;;;;;;;5087347;28;19916;-64
2022/06/03 07:43:48;;;;;;;7.57;3.85;;;;;;;;;;5085968;28;20043;-64
2022/06/03 07:46:14;;;;;;;5.32;2.97;;;;;;;;;;5089627;28;20526;-65
2022/06/03 07:48:40;;;;;;;4.10;2.35;;;;;;;;;;5089050;28;20115;-64
2022/06/03 07:51:11;;;;;;;12.25;2.67;;;;;;;;;;5092736;28;20086;-65
2022/06/03 07:53:54;;;;;;;3.35;1.88;;;;;;;;;;5090321;28;20109;-65
2022/06/03 07:56:22;;;;;;;4.53;2.45;;;;;;;;;;5098269;28;20350;-65
2022/06/03 07:58:51;;;;;;;3.42;2.10;;;;;;;;;;5098512;28;20389;-65
2022/06/03 08:01:24;;;;;;;5.18;2.50;;;;;;;;;;5098337;28;20040;-64
2022/06/03 08:03:50;;;;;;;3.90;2.72;;;;;;;;;;5088097;28;20052;-65
2022/06/03 08:06:25;;;;;;;6.32;2.55;;;;;;;;;;5091088;28;20043;-65
2022/06/03 08:11:41;;;;;;;3.30;2.17;;;;;;;;;;5097926;28;20080;-64
2022/06/03 08:14:08;;;;;;;14.68;3.22;;;;;;;;;;5083965;28;20044;-65
2022/06/03 08:16:35;;;;;;;6.40;2.53;;;;;;;;;;5092412;28;20043;-65
2022/06/03 08:19:09;;;;;;;5.15;2.53;;;;;;;;;;5098566;28;20043;-65
2022/06/03 08:21:42;;;;;;;3.75;2.28;;;;;;;;;;5094367;28;20036;-65
2022/06/03 08:24:08;;;;;;;;;;;;;;;;;;5099778;28;20113;-64
2022/06/03 08:26:34;;;;;;;2.83;1.95;;;;;;;;;;5094642;28;19919;-65
2022/06/03 08:29:13;;;;;;;3.60;2.53;;;;;;;;;;5100099;28;20683;-65
2022/06/03 08:31:39;;;;;;;6.20;2.05;;;;;;;;;;5101055;28;20043;-65
2022/06/03 08:34:07;;;;;;;3.30;2.00;;;;;;;;;;5088997;28;20043;-65
2022/06/03 08:36:37;;;;;;;3.28;2.10;;;;;;;;;;5099139;28;20040;-64
2022/06/03 08:39:06;;;;;;;3.55;1.83;;;;;;;;;;5103451;28;20067;-65
2022/06/03 08:41:39;;;;;;;4.47;1.85;;;;;;;;;;5089144;28;20036;-65
2022/06/03 08:44:20;;;;;;;5.32;2.30;;;;;;;;;;5087074;28;20556;-65
2022/06/03 08:47:03;;;;;;;3.03;2.08;;;;;;;;;;5099794;28;20058;-65
2022/06/03 08:49:46;;;;;;;3.67;2.20;;;;;;;;;;5104284;28;20488;-64
2022/06/03 08:52:13;;;;;;;5.63;1.90;;;;;;;;;;5096338;28;20043;-64
2022/06/03 08:54:45;;;;;;;7.43;2.15;;;;;;;;;;5055335;28;20039;-65
2022/06/03 08:57:18;;;;;;;3.03;1.65;;;;;;;;;;5101175;28;20717;-65
2022/06/03 08:59:58;;;;;;;5.22;2.40;;;;;;;;;;5087632;28;20047;-65
2022/06/03 09:02:30;;;;;;;4.80;2.22;;;;;;;;;;5100104;28;20389;-65
2022/06/03 09:05:01;;;;;;;5.78;2.15;;;;;;;;;;5099509;28;20617;-65
2022/06/03 09:07:27;;;;;;;8.15;1.80;;;;;;;;;;5098125;28;20161;-65
2022/06/03 09:09:53;;;;;;;4.72;2.50;;;;;;;;;;5093172;28;20051;-65
2022/06/03 09:12:28;;;;;;;3.35;1.90;;;;;;;;;;5095763;28;20055;-65
2022/06/03 09:14:56;;;;;;;4.00;1.98;;;;;;;;;;5102456;28;20048;-65
2022/06/03 09:17:45;;;;;;;6.72;2.60;;;;;;;;;;5100973;28;20434;-65
2022/06/03 09:20:26;;;;;;;3.35;2.53;;;;;;;;;;5100281;28;20047;-65
2022/06/03 09:22:58;;;;;;;4.72;2.35;;;;;;;;;;5090245;28;20036;-65
2022/06/03 09:25:24;;;;;;;4.55;2.28;;;;;;;;;;5085193;28;20493;-65
2022/06/03 09:27:51;;;;;;;3.25;2.08;;;;;;;;;;5094015;28;20039;-65
2022/06/03 09:30:25;;;;;;;1.95;1.67;;;;;;;;;;5095593;28;20043;-65
2022/06/03 09:32:51;;;;;;;3.38;1.48;;;;;;;;;;5086912;28;20047;-65
2022/06/03 09:35:18;;;;;;;3.30;1.73;;;;;;;;;;5089982;28;20089;-65
2022/06/03 09:37:47;;;;;;;7.90;2.00;;;;;;;;;;5087764;28;20051;-65
2022/06/03 09:40:17;;;;;;;4.47;2.55;;;;;;;;;;5087982;28;20040;-65
2022/06/03 09:42:47;;;;;;;3.88;2.50;;;;;;;;;;5091030;28;20119;-65
2022/06/03 09:45:19;;;;;;;4.90;2.55;;;;;;;;;;5090169;28;20032;-65
2022/06/03 09:47:46;;;;;;;3.00;2.10;;;;;;;;;;5085728;28;20657;-65
2022/06/03 09:50:15;;;;;;;5.13;2.53;;;;;;;;;;5087527;28;20071;-65
2022/06/03 09:52:41;;;;;;;4.40;2.53;;;;;;;;;;5090001;28;20481;-66
2022/06/03 09:55:21;;;;;;;4.60;2.85;;;;;;;;;;5086500;28;20036;-65
2022/06/03 09:57:47;;;;;;;3.70;2.22;;;;;;;;;;5070317;28;20520;-66
2022/06/03 10:00:13;;;;;;;3.55;1.90;;;;;;;;;;5086606;28;20133;-65
2022/06/03 10:02:40;;;;;;;5.03;2.47;;;;;;;;;;5086066;28;20221;-65
2022/06/03 10:05:07;;;;;;;6.93;3.03;;;;;;;;;;5083934;28;20048;-67
2022/06/03 10:07:33;;;;;;;5.00;2.53;;;;;;;;;;5084374;28;20087;-65
2022/06/03 10:12:53;;;;;;;5.25;2.25;;;;;;;;;;5061512;28;20043;-65
2022/06/03 10:18:12;;;;;;;3.95;2.63;;;;;;;;;;5089841;28;20576;-65
2022/06/03 10:20:38;;;;;;;5.57;2.80;;;;;;;;;;5091573;28;20071;-65
2022/06/03 10:23:05;;;;;;;3.63;2.63;;;;;;;;;;5094041;28;20433;-65
2022/06/03 10:25:31;;;;;;;2.92;2.35;;;;;;;;;;5095103;28;20084;-65
2022/06/03 10:28:02;;;;;;;4.57;2.65;;;;;;;;;;5089500;28;20048;-65
2022/06/03 10:30:29;;;;;;;5.90;2.55;;;;;;;;;;5090827;28;20036;-65
2022/06/03 10:32:56;;;;;;;7.32;2.88;;;;;;;;;;5096653;28;20101;-66
2022/06/03 10:35:34;;;;;;;3.35;2.63;;;;;;;;;;5096273;28;20054;-65
2022/06/03 10:38:03;;;;;;;5.93;2.80;;;;;;;;;;5090191;28;20063;-65
2022/06/03 10:40:30;;;;;;;3.70;2.67;;;;;;;;;;5085075;28;20588;-65
2022/06/03 10:42:58;;;;;;;4.50;2.42;;;;;;;;;;5100443;28;20107;-65
2022/06/03 10:45:42;;;;;;;4.97;2.95;;;;;;;;;;5097705;28;20044;-65
2022/06/03 10:48:22;;;;;;;3.28;2.28;;;;;;;;;;5086311;28;20048;-65
2022/06/03 10:50:48;;;;;;;3.45;2.33;;;;;;;;;;5093990;28;20516;-65
2022/06/03 11:01:47;;;;;;;4.13;2.40;;;;;;;;;;5093694;28;20450;-65
2022/06/03 11:04:27;;;;;;;3.63;2.53;;;;;;;;;;5092591;28;20036;-65
2022/06/03 11:06:54;;;;;;;3.85;2.17;;;;;;;;;;5097097;28;20544;-65
2022/06/03 11:09:22;;;;;;;5.32;2.22;;;;;;;;;;5088867;28;20046;-65
2022/06/03 11:12:01;;;;;;;5.50;3.08;;;;;;;;;;5094732;28;20563;-65
2022/06/03 11:14:38;;;;;;;4.20;2.45;;;;;;;;;;5084194;28;20040;-65
2022/06/03 11:17:16;;;;;;;3.38;2.45;;;;;;;;;;5097531;28;20127;-65
2022/06/03 11:19:45;;;;;;;3.42;2.50;;;;;;;;;;5092716;28;20101;-65
2022/06/03 11:22:11;;;;;;;3.95;2.40;;;;;;;;;;5088011;28;20036;-65
2022/06/03 11:24:38;;;;;;;5.13;2.55;;;;;;;;;;5075099;28;20568;-65
2022/06/03 11:27:05;;;;;;;3.10;2.50;;;;;;;;;;5083178;28;20119;-65
2022/06/03 11:29:37;;;;;;;3.97;2.60;;;;;;;;;;5085818;28;20051;-65
2022/06/03 11:32:04;;;;;;;6.43;2.75;;;;;;;;;;5093737;28;20040;-65
2022/06/03 11:34:39;;;;;;;2.65;2.13;;;;;;;;;;5090026;28;20027;-65
2022/06/03 11:37:10;;;;;;;3.40;2.00;;;;;;;;;;5085649;28;20098;-65
2022/06/03 11:39:40;;;;;;;3.63;1.63;;;;;;;;;;5090200;28;20570;-65
2022/06/03 11:42:25;;;;;;;3.97;2.63;;;;;;;;;;5094247;28;20560;-65
2022/06/03 11:44:54;;;;;;;2.92;2.03;;;;;;;;;;5095411;28;20531;-65
2022/06/03 11:47:40;;;;;;;2.92;1.83;;;;;;;;;;5092048;28;20078;-65
2022/06/03 11:50:08;;;;;;;5.95;2.40;;;;;;;;;;5093199;28;21875;-65
2022/06/03 11:52:34;;;;;;;4.78;2.45;;;;;;;;;;5085585;28;20040;-65
2022/06/03 11:55:01;;;;;;;4.40;2.35;;;;;;;;;;5097134;28;20039;-65
2022/06/03 11:57:28;;;;;;;3.08;2.05;;;;;;;;;;5095746;28;20047;-65
2022/06/03 11:59:57;;;;;;;3.35;2.30;;;;;;;;;;5100533;28;20052;-65
2022/06/03 12:02:29;;;;;;;3.03;1.98;;;;;;;;;;5088630;28;20448;-65
2022/06/03 12:04:55;;;;;;;;;;;;;;;;;;5103195;28;20067;-65
2022/06/03 12:07:21;;;;;;;3.20;2.08;;;;;;;;;;5104203;28;19985;-65
2022/06/03 12:10:02;;;;;;;3.45;2.28;;;;;;;;;;5101058;28;20051;-66
2022/06/03 12:15:33;;;;;;;7.15;3.50;;;;;;;;;;5101009;28;20055;-65
2022/06/03 12:18:16;;;;;;;3.92;2.95;;;;;;;;;;5090582;28;20036;-65
2022/06/03 12:20:48;;;;;;;10.32;2.95;;;;;;;;;;5091217;28;20108;-65
2022/06/03 12:23:14;;;;;;;4.18;2.55;;;;;;;;;;5097612;28;20384;-65
2022/06/03 12:25:40;;;;;;;4.47;2.00;;;;;;;;;;5100946;28;20051;-64
2022/06/03 12:28:20;;;;;;;7.22;3.10;;;;;;;;;;5093419;28;20063;-65
2022/06/03 12:30:50;;;;;;;3.58;2.20;;;;;;;;;;5104213;28;20092;-65
2022/06/03 12:33:22;;;;;;;6.40;2.20;;;;;;;;;;5091361;28;20127;-65
2022/06/03 12:35:54;;;;;;;3.92;2.50;;;;;;;;;;5094475;28;20047;-64
2022/06/03 12:38:20;;;;;;;4.68;2.28;;;;;;;;;;5092039;28;20062;-65
2022/06/03 12:40:48;;;;;;;5.63;2.50;;;;;;;;;;5089803;28;20365;-65
2022/06/03 12:43:29;;;;;;;4.93;2.60;;;;;;;;;;5087996;28;20454;-65
2022/06/03 12:45:58;;;;;;;2.58;1.85;;;;;;;;;;5092651;28;20564;-65
2022/06/03 12:48:35;;;;;;;2.85;2.15;;;;;;;;;;5093369;28;20043;-65
2022/06/03 12:51:31;;;;;;;4.05;2.25;;;;;;;;;;5101200;28;20050;-64
2022/06/03 12:54:05;;;;;;;5.13;2.15;;;;;;;;;;5092808;28;20055;-65
2022/06/03 12:56:33;;;;;;;3.55;2.25;;;;;;;;;;5102836;28;20046;-65
2022/06/03 12:58:59;;;;;;;4.35;1.77;;;;;;;;;;5099296;28;20074;-65
2022/06/03 13:01:32;;;;;;;6.03;2.30;;;;;;;;;;5103857;28;20582;-64
2022/06/03 13:04:18;;;;;;;5.75;2.05;;;;;;;;;;5099791;28;20259;-64
2022/06/03 13:07:02;;;;;;;4.15;2.30;;;;;;;;;;5097163;28;20527;-64
2022/06/03 13:09:47;;;;;;;2.88;1.88;;;;;;;;;;5092870;28;20082;-64
2022/06/03 13:12:21;;;;;;;2.83;1.70;;;;;;;;;;5093196;28;20040;-66
2022/06/03 13:14:48;;;;;;;3.40;1.80;;;;;;;;;;5101193;28;20505;-66
2022/06/03 13:17:33;;;;;;;3.47;1.65;;;;;;;;;;5092163;28;20058;-66
2022/06/03 13:20:01;;;;;;;2.33;1.50;;;;;;;;;;5090903;28;20276;-66
2022/06/03 13:22:29;;;;;;;4.50;1.58;;;;;;;;;;5088576;28;20186;-66
2022/06/03 13:25:13;;;;;;;2.30;1.50;;;;;;;;;;5089053;28;20640;-66
2022/06/03 13:27:40;;;;;;;2.80;1.48;;;;;;;;;;5092689;28;20035;-66
2022/06/03 13:30:12;;;;;;;3.03;1.63;;;;;;;;;;5071240;28;20044;-66
2022/06/03 13:32:39;;;;;;;3.60;1.73;;;;;;;;;;5096329;28;20044;-65
2022/06/03 13:35:05;;;;;;;3.58;1.70;;;;;;;;;;5098411;28;20517;-66
2022/06/03 13:37:44;;;;;;;5.07;2.00;;;;;;;;;;5092412;28;20035;-66
2022/06/03 13:40:19;;;;;;;3.72;1.65;;;;;;;;;;5099681;27;20083;-66
2022/06/03 13:42:59;;;;;;;2.28;1.40;;;;;;;;;;5093066;28;20044;-66
2022/06/03 13:45:29;;;;;;;5.97;2.15;;;;;;;;;;5089496;28;20494;-66
2022/06/03 13:47:58;;;;;;;5.25;2.20;;;;;;;;;;5101400;28;20106;-66
2022/06/03 13:50:27;;;;;;;3.17;1.35;;;;;;;;;;5099174;28;20044;-66
2022/06/03 13:52:55;;;;;;;4.30;1.80;;;;;;;;;;5087933;28;20554;-65
2022/06/03 13:55:24;;;;;;;5.28;1.52;;;;;;;;;;5095098;28;20044;-66
2022/06/03 13:57:52;;;;;;;2.72;1.90;;;;;;;;;;5094556;28;20043;-65
2022/06/03 14:00:22;;;;;;;4.57;1.80;;;;;;;;;;5102744;28;20035;-65
2022/06/03 14:02:49;;;;;;;4.38;1.40;;;;;;;;;;5097013;28;20040;-65
2022/06/03 14:05:27;;;;;;;5.95;2.13;;;;;;;;;;5089417;28;20118;-66
2022/06/03 14:07:59;;;;;;;2.55;1.10;;;;;;;;;;5093926;28;20039;-66
2022/06/03 14:10:26;;;;;;;2.67;1.00;;;;;;;;;;5096696;28;20532;-65
2022/06/03 14:13:03;;;;;;;4.80;1.17;;;;;;;;;;5100757;28;20119;-65
2022/06/03 14:15:37;;;;;;;2.95;1.80;;;;;;;;;;5101452;28;20050;-66
2022/06/03 14:18:03;;;;;;;2.08;1.00;;;;;;;;;;5101160;28;20436;-67
2022/06/03 14:20:37;;;;;;;5.45;1.67;;;;;;;;;;5101424;28;20500;-67
2022/06/03 14:23:26;;;;;;;1.83;1.20;;;;;;;;;;5093445;28;20044;-66
2022/06/03 14:25:58;;;;;;;2.90;1.13;;;;;;;;;;5095570;28;20630;-66
2022/06/03 14:28:25;;;;;;;3.20;1.33;;;;;;;;;;5092735;28;20067;-67
2022/06/03 14:30:55;;;;;;;2.08;0.98;;;;;;;;;;5098550;28;20123;-66
2022/06/03 14:33:23;;;;;;;2.92;0.77;;;;;;;;;;5086878;28;20050;-66
2022/06/03 14:35:51;;;;;;;2.15;0.93;;;;;;;;;;5093197;28;20038;-66
2022/06/03 14:38:21;;;;;;;1.77;0.82;;;;;;;;;;5096101;28;20485;-66
2022/06/03 14:40:49;;;;;;;2.83;1.15;;;;;;;;;;5097811;28;20042;-66
2022/06/03 14:43:17;;;;;;;2.90;1.25;;;;;;;;;;5095048;28;20807;-66
2022/06/03 14:45:46;;;;;;;4.45;1.20;;;;;;;;;;5094505;28;20040;-66
2022/06/03 14:48:13;;;;;;;2.13;1.00;;;;;;;;;;5096264;28;20077;-66
2022/06/03 14:50:41;;;;;;;1.77;1.20;;;;;;;;;;5094134;28;20047;-66
2022/06/03 14:53:14;;;;;;;4.72;1.17;;;;;;;;;;5085134;28;20134;-67
2022/06/03 14:55:40;;;;;;;;;;;;;;;;;;5089796;28;20089;-66
2022/06/03 14:58:09;;;;;;;1.92;1.27;;;;;;;;;;5085255;28;20498;-66
2022/06/03 15:00:44;;;;;;;2.92;1.02;;;;;;;;;;5089366;28;20489;-65
2022/06/03 15:03:19;;;;;;;2.33;1.00;;;;;;;;;;5094660;28;20063;-65
2022/06/03 15:05:50;;;;;;;3.53;1.15;;;;;;;;;;5071956;28;20108;-65
2022/06/03 15:08:19;;;;;;;1.67;1.17;;;;;;;;;;5085932;28;20055;-65
2022/06/03 15:10:47;;;;;;;1.85;1.15;;;;;;;;;;5085045;28;20043;-65
2022/06/03 15:13:24;;;;;;;3.90;2.22;;;;;;;;;;5088502;28;20485;-66
2022/06/03 15:15:50;;;;;;;3.63;1.23;;;;;;;;;;5093223;28;20549;-65
2022/06/03 15:18:18;;;;;;;2.63;1.30;;;;;;;;;;5087876;28;20118;-65
2022/06/03 15:20:56;;;;;;;1.65;1.20;;;;;;;;;;5096983;28;20048;-65
2022/06/03 15:23:24;;;;;;;2.25;1.17;;;;;;;;;;5084998;28;20089;-65
2022/06/03 15:25:54;;;;;;;1.73;1.10;;;;;;;;;;5087481;28;20334;-65
2022/06/03 15:28:21;;;;;;;2.85;1.30;;;;;;;;;;5084559;28;20943;-66
2022/06/03 15:31:19;;;;;;;3.35;1.20;;;;;;;;;;5088319;28;20047;-65
2022/06/03 15:33:59;;;;;;;4.18;1.40;;;;;;;;;;5069607;28;20640;-66
2022/06/03 15:36:27;;;;;;;2.97;1.45;;;;;;;;;;5096671;28;20464;-65
2022/06/03 15:38:55;;;;;;;3.00;1.25;;;;;;;;;;5092279;28;20040;-65
2022/06/03 15:41:24;;;;;;;2.22;1.13;;;;;;;;;;5083148;28;20097;-65
2022/06/03 15:43:51;;;;;;;2.65;1.75;;;;;;;;;;5092806;28;20050;-65
2022/06/03 15:46:27;;;;;;;2.35;1.30;;;;;;;;;;5095244;28;20040;-65
2022/06/03 15:48:55;;;;;;;2.00;1.17;;;;;;;;;;5101098;28;20493;-65